Vail, Iowa
Current Conditions -  °F | °C
As of 11:55 PM on Thursday 30 Oct 2014 (Local Time) from KDNS Reporting Station
Overcast Overcast  
Wind Chill: 28°   Ceiling: 2200
Heat Index: 37°   Visibility: 10mi
Dew Point: 30°   Wind: 16mph
Humidity: 75%   Direction: 360°N
Pressure: 30.36"   Gusts: 25mph
Location:  42.06°N, 95.2°W
Report Text: KDNS 310455Z AUTO 36014G22KT 10SM OVC022 03/M01 A3036 RMK AO2
Loading
Personal Weather Stations






























Interactive Weather Map
Tropical Storm Tracking
New forecast layout! Learn more

10-Day Weather Forecast

Advertisements
Track Severe Weather on mobile